createdAt,value
2022-11-16T00:01:27.661Z,8.90
2022-11-16T00:04:00.561Z,8.90
2022-11-16T00:06:31.936Z,8.80
2022-11-16T00:09:20.647Z,8.70
2022-11-16T00:11:53.549Z,8.70
2022-11-16T00:14:25.201Z,8.60
2022-11-16T00:16:58.265Z,8.50
2022-11-16T00:19:29.416Z,8.40
2022-11-16T00:22:00.324Z,8.30
2022-11-16T00:24:30.900Z,8.20
2022-11-16T00:27:01.745Z,8.10
2022-11-16T00:29:32.346Z,8.00
2022-11-16T00:32:04.496Z,7.90
2022-11-16T00:34:35.120Z,7.70
2022-11-16T00:37:05.874Z,7.70
2022-11-16T00:39:36.658Z,7.60
2022-11-16T00:42:07.326Z,7.50
2022-11-16T00:44:37.963Z,7.40
2022-11-16T00:47:10.255Z,7.30
2022-11-16T00:49:40.869Z,7.30
2022-11-16T00:52:11.791Z,7.20
2022-11-16T00:54:42.387Z,7.10
2022-11-16T00:57:12.951Z,7.00
2022-11-16T00:59:43.752Z,6.90
2022-11-16T01:02:15.969Z,6.90
2022-11-16T01:04:46.534Z,6.80
2022-11-16T01:07:17.198Z,6.70
2022-11-16T01:09:48.023Z,6.70
2022-11-16T01:12:18.386Z,6.60
2022-11-16T01:14:50.685Z,6.50
2022-11-16T01:17:22.882Z,6.40
2022-11-16T01:19:53.525Z,6.40
2022-11-16T01:22:24.134Z,6.30
2022-11-16T01:24:54.712Z,6.30
2022-11-16T01:27:25.311Z,6.20
2022-11-16T01:29:55.990Z,6.10
2022-11-16T01:32:28.714Z,6.10
2022-11-16T01:34:59.265Z,6.00
2022-11-16T01:37:30.754Z,6.00
2022-11-16T01:40:01.768Z,5.90
2022-11-16T01:42:34.330Z,5.80
2022-11-16T01:45:08.976Z,5.80
2022-11-16T01:47:42.180Z,5.80
2022-11-16T01:50:16.169Z,5.70
2022-11-16T01:52:50.565Z,5.70
2022-11-16T01:55:21.425Z,5.60
2022-11-16T01:57:52.845Z,5.60
2022-11-16T02:00:24.016Z,5.60
2022-11-16T02:02:56.613Z,5.50
2022-11-16T02:05:40.046Z,5.50
2022-11-16T02:08:40.972Z,5.40
2022-11-16T02:11:31.339Z,5.40
2022-11-16T02:14:15.245Z,5.40
2022-11-16T02:16:54.888Z,5.40
2022-11-16T02:19:56.716Z,5.30
2022-11-16T02:22:38.681Z,5.30
2022-11-16T02:25:15.516Z,5.20
2022-11-16T02:28:05.063Z,5.20
2022-11-16T02:30:39.187Z,5.10
2022-11-16T02:33:14.697Z,5.10
2022-11-16T02:35:49.529Z,5.00
2022-11-16T02:38:24.201Z,5.00
2022-11-16T02:41:00.084Z,5.00
2022-11-16T02:43:34.856Z,5.00
2022-11-16T02:46:10.821Z,5.00
2022-11-16T02:48:46.515Z,4.90
2022-11-16T02:51:18.979Z,4.90
2022-11-16T02:54:01.853Z,4.80
2022-11-16T02:56:33.585Z,4.80
2022-11-16T02:59:04.186Z,4.70
2022-11-16T03:01:40.919Z,4.70
2022-11-16T03:04:18.975Z,4.60
2022-11-16T03:06:52.871Z,4.70
2022-11-16T03:09:27.766Z,4.60
2022-11-16T03:12:00.798Z,4.60
2022-11-16T03:14:38.687Z,4.50
2022-11-16T03:17:15.063Z,4.50
2022-11-16T03:19:51.228Z,4.50
2022-11-16T03:22:29.499Z,4.50
2022-11-16T03:25:01.111Z,4.40
2022-11-16T03:27:39.785Z,4.40
2022-11-16T03:30:14.207Z,4.40
2022-11-16T03:32:54.275Z,4.30
2022-11-16T03:35:29.758Z,4.30
2022-11-16T03:38:02.950Z,4.20
2022-11-16T03:40:37.294Z,4.20
2022-11-16T03:43:11.054Z,4.20
2022-11-16T03:45:41.986Z,4.20
2022-11-16T03:48:16.034Z,4.10
2022-11-16T03:50:48.267Z,4.10
2022-11-16T03:53:19.426Z,4.10
2022-11-16T03:55:50.259Z,4.10
2022-11-16T03:58:21.084Z,4.00
2022-11-16T04:00:53.202Z,4.00
2022-11-16T04:03:25.756Z,4.00
2022-11-16T04:06:13.798Z,4.00
2022-11-16T04:09:10.261Z,3.90
2022-11-16T04:11:57.379Z,3.90
2022-11-16T04:14:45.942Z,3.90
2022-11-16T04:17:35.184Z,3.80
2022-11-16T04:20:26.022Z,3.80
2022-11-16T04:23:31.271Z,3.70
2022-11-16T04:26:02.961Z,3.80
2022-11-16T04:28:35.527Z,3.70
2022-11-16T04:31:26.605Z,3.70
2022-11-16T04:34:14.890Z,3.70
2022-11-16T04:37:04.539Z,3.70
2022-11-16T04:39:35.322Z,3.60
2022-11-16T04:42:20.416Z,3.60
2022-11-16T04:45:08.107Z,3.60
2022-11-16T04:47:38.760Z,3.50
2022-11-16T04:50:11.158Z,3.50
2022-11-16T04:52:47.640Z,3.50
2022-11-16T04:55:20.332Z,3.50
2022-11-16T04:57:52.432Z,3.50
2022-11-16T05:00:24.155Z,3.40
2022-11-16T05:03:00.829Z,3.40
2022-11-16T05:05:35.501Z,3.40
2022-11-16T05:08:09.298Z,3.40
2022-11-16T05:10:40.762Z,3.40
2022-11-16T05:13:11.549Z,3.30
2022-11-16T05:15:43.998Z,3.30
2022-11-16T05:18:15.418Z,3.30
2022-11-16T05:21:05.746Z,3.30
2022-11-16T05:23:55.718Z,3.30
2022-11-16T05:26:27.149Z,3.20
2022-11-16T05:28:58.548Z,3.20
2022-11-16T05:31:29.562Z,3.20
2022-11-16T05:34:00.917Z,3.20
2022-11-16T05:36:32.578Z,3.20
2022-11-16T05:39:06.136Z,3.20
2022-11-16T05:41:38.558Z,3.10
2022-11-16T05:44:09.588Z,3.10
2022-11-16T05:46:40.363Z,3.00
2022-11-16T05:49:12.929Z,3.00
2022-11-16T05:51:46.388Z,3.00
2022-11-16T05:54:21.635Z,3.00
2022-11-16T05:56:53.279Z,3.00
2022-11-16T05:59:26.057Z,3.00
2022-11-16T06:01:57.083Z,3.00
2022-11-16T06:04:28.925Z,3.00
2022-11-16T06:06:59.743Z,3.00
2022-11-16T06:09:32.931Z,3.00
2022-11-16T06:12:03.960Z,3.00
2022-11-16T06:14:34.598Z,3.00
2022-11-16T06:17:05.670Z,2.90
2022-11-16T06:19:38.112Z,2.90
2022-11-16T06:22:08.909Z,2.90
2022-11-16T06:24:42.189Z,2.90
2022-11-16T06:27:13.194Z,2.90
2022-11-16T06:29:44.010Z,2.90
2022-11-16T06:32:15.702Z,2.80
2022-11-16T06:34:46.778Z,2.80
2022-11-16T06:37:17.544Z,2.80
2022-11-16T06:39:49.935Z,2.80
2022-11-16T06:42:21.379Z,2.70
2022-11-16T06:44:52.405Z,2.70
2022-11-16T06:47:23.253Z,2.80
2022-11-16T06:49:54.043Z,2.70
2022-11-16T06:52:24.958Z,2.80
2022-11-16T06:54:57.834Z,2.80
2022-11-16T06:57:28.825Z,2.70
2022-11-16T07:00:00.502Z,2.70
2022-11-16T07:02:31.559Z,2.70
2022-11-16T07:05:03.962Z,2.70
2022-11-16T07:07:36.334Z,2.70
2022-11-16T07:10:11.734Z,2.70
2022-11-16T07:12:43.370Z,2.70
2022-11-16T07:15:14.625Z,2.70
2022-11-16T07:17:46.842Z,2.70
2022-11-16T07:20:19.572Z,2.60
2022-11-16T07:22:50.694Z,2.60
2022-11-16T07:25:23.439Z,2.60
2022-11-16T07:27:55.169Z,2.60
2022-11-16T07:30:26.266Z,2.60
2022-11-16T07:33:01.930Z,2.50
2022-11-16T07:35:33.767Z,2.50
2022-11-16T07:38:04.809Z,2.40
2022-11-16T07:40:38.539Z,2.40
2022-11-16T07:43:09.630Z,2.40
2022-11-16T07:45:40.667Z,2.40
2022-11-16T07:48:13.642Z,2.40
2022-11-16T07:50:44.237Z,2.30
2022-11-16T07:53:15.689Z,2.30
2022-11-16T07:55:54.866Z,2.30
2022-11-16T07:58:26.298Z,2.20
2022-11-16T08:00:56.906Z,2.20
2022-11-16T08:03:27.966Z,2.20
2022-11-16T08:06:03.041Z,2.20
2022-11-16T08:08:35.190Z,2.10
2022-11-16T08:11:11.020Z,2.00
2022-11-16T08:13:43.818Z,2.10
2022-11-16T08:16:18.757Z,2.10
2022-11-16T08:18:49.331Z,2.10
2022-11-16T08:21:22.371Z,2.10
2022-11-16T08:23:58.178Z,2.10
2022-11-16T08:26:30.874Z,2.00
2022-11-16T08:29:01.961Z,2.00
2022-11-16T08:31:33.171Z,2.00
2022-11-16T08:34:04.419Z,2.00
2022-11-16T08:36:35.208Z,2.00
2022-11-16T08:39:06.538Z,2.00
2022-11-16T08:41:43.119Z,2.00
2022-11-16T08:44:14.290Z,2.00
2022-11-16T08:46:46.308Z,1.90
2022-11-16T08:49:17.839Z,1.90
2022-11-16T08:51:48.859Z,1.90
2022-11-16T08:54:19.869Z,1.90
2022-11-16T08:56:53.618Z,1.90
2022-11-16T08:59:24.419Z,1.80
2022-11-16T09:01:56.408Z,1.80
2022-11-16T09:04:30.520Z,1.80
2022-11-16T09:07:05.248Z,1.80
2022-11-16T09:09:35.990Z,1.80
2022-11-16T09:12:09.122Z,1.80
2022-11-16T09:14:39.811Z,1.70
2022-11-16T09:17:10.816Z,1.80
2022-11-16T09:19:42.450Z,1.80
2022-11-16T09:22:13.223Z,1.80
2022-11-16T09:24:45.174Z,1.70
2022-11-16T09:27:18.624Z,1.70
2022-11-16T09:29:49.919Z,1.60
2022-11-16T09:32:21.104Z,1.60
2022-11-16T09:34:52.117Z,1.60
2022-11-16T09:37:23.816Z,1.50
2022-11-16T09:39:55.101Z,1.50
2022-11-16T09:42:40.171Z,1.50
2022-11-16T09:45:18.440Z,1.40
2022-11-16T09:47:54.983Z,1.50
2022-11-16T09:50:42.694Z,1.50
2022-11-16T09:53:35.377Z,1.50
2022-11-16T09:56:09.732Z,1.50
2022-11-16T09:58:52.144Z,1.50
2022-11-16T10:01:29.694Z,1.50
2022-11-16T10:04:07.503Z,1.50
2022-11-16T10:06:49.496Z,1.50
2022-11-16T10:09:20.926Z,1.50
2022-11-16T10:12:23.805Z,1.40
2022-11-16T10:15:29.678Z,1.40
2022-11-16T10:18:17.283Z,1.40
2022-11-16T10:21:00.140Z,1.30
2022-11-16T10:23:41.437Z,1.30
2022-11-16T10:26:22.955Z,1.30
2022-11-16T10:29:18.414Z,1.30
2022-11-16T10:32:03.866Z,1.30
2022-11-16T10:34:44.043Z,1.30
2022-11-16T10:37:17.503Z,1.20
2022-11-16T10:39:51.736Z,1.20
2022-11-16T10:42:29.780Z,1.30
2022-11-16T10:45:07.691Z,1.20
2022-11-16T10:47:48.199Z,1.20
2022-11-16T10:50:33.557Z,1.30
2022-11-16T10:53:05.807Z,1.20
2022-11-16T10:55:36.998Z,1.20
2022-11-16T10:58:09.296Z,1.10
2022-11-16T11:00:47.826Z,1.10
2022-11-16T11:03:34.432Z,1.10
2022-11-16T11:06:05.787Z,1.00
2022-11-16T11:08:36.811Z,1.00
2022-11-16T11:11:22.503Z,1.00
2022-11-16T11:14:07.861Z,1.00
2022-11-16T11:16:39.505Z,1.00
2022-11-16T11:19:30.177Z,1.00
2022-11-16T11:22:02.895Z,1.00
2022-11-16T11:24:44.561Z,1.00
2022-11-16T11:27:16.467Z,0.90
2022-11-16T11:29:54.155Z,0.90
2022-11-16T11:32:28.468Z,0.90
2022-11-16T11:35:02.418Z,0.90
2022-11-16T11:37:35.449Z,0.90
2022-11-16T11:40:21.845Z,0.90
2022-11-16T11:43:00.568Z,0.80
2022-11-16T11:45:46.405Z,0.90
2022-11-16T11:48:31.385Z,0.80
2022-11-16T11:51:14.421Z,0.80
2022-11-16T11:53:52.958Z,0.80
2022-11-16T11:56:24.452Z,0.80
2022-11-16T11:58:57.251Z,0.80
2022-11-16T12:01:53.284Z,0.80
2022-11-16T12:04:57.451Z,0.80
2022-11-16T12:07:56.295Z,0.80
2022-11-16T12:10:38.494Z,0.80
2022-11-16T12:13:45.500Z,0.80
2022-11-16T12:16:23.995Z,0.80
2022-11-16T12:19:09.334Z,0.80
2022-11-16T12:21:51.641Z,0.80
2022-11-16T12:24:54.129Z,0.80
2022-11-16T12:27:39.692Z,0.80
2022-11-16T12:30:16.383Z,0.70
2022-11-16T12:33:02.166Z,0.70
2022-11-16T12:35:47.563Z,0.70
2022-11-16T12:38:32.054Z,0.70
2022-11-16T12:41:22.528Z,0.70
2022-11-16T12:44:03.246Z,0.70
2022-11-16T12:46:46.322Z,0.70
2022-11-16T12:49:53.317Z,0.70
2022-11-16T12:52:49.718Z,0.60
2022-11-16T12:55:29.503Z,0.60
2022-11-16T12:58:13.433Z,0.70
2022-11-16T13:01:03.668Z,0.60
2022-11-16T13:03:42.308Z,0.60
2022-11-16T13:06:18.071Z,0.60
2022-11-16T13:08:59.214Z,0.60
2022-11-16T13:11:35.320Z,0.60
2022-11-16T13:14:13.748Z,0.60
2022-11-16T13:16:47.427Z,0.60
2022-11-16T13:19:19.536Z,0.50
2022-11-16T13:21:58.318Z,0.50
2022-11-16T13:24:40.541Z,0.60
2022-11-16T13:27:34.844Z,0.60
2022-11-16T13:30:18.366Z,0.50
2022-11-16T13:33:07.851Z,0.50
2022-11-16T13:35:40.877Z,0.50
2022-11-16T13:38:15.626Z,0.50
2022-11-16T13:40:47.491Z,0.50
2022-11-16T13:43:23.344Z,0.50
2022-11-16T13:45:59.565Z,0.50
2022-11-16T13:48:36.687Z,0.50
2022-11-16T13:51:11.361Z,0.50
2022-11-16T13:54:44.045Z,0.50
2022-11-16T13:56:52.991Z,0.40
2022-11-16T13:59:28.745Z,0.40
2022-11-16T14:02:02.043Z,0.40
2022-11-16T14:05:00.511Z,0.40
2022-11-16T14:07:50.920Z,0.40
2022-11-16T14:10:57.964Z,0.40
2022-11-16T14:13:45.182Z,0.40
2022-11-16T14:16:37.068Z,0.40
2022-11-16T14:19:33.465Z,0.40
2022-11-16T14:22:11.082Z,0.40
2022-11-16T14:24:44.915Z,0.40
2022-11-16T14:27:29.258Z,0.40
2022-11-16T14:30:07.754Z,0.40
2022-11-16T14:32:46.534Z,0.40
2022-11-16T14:35:35.292Z,0.40
2022-11-16T14:38:11.495Z,0.30
2022-11-16T14:40:49.029Z,0.30
2022-11-16T14:43:28.670Z,0.30
2022-11-16T14:46:03.621Z,0.30
2022-11-16T14:48:36.297Z,0.30
2022-11-16T14:51:11.948Z,0.30
2022-11-16T14:53:48.885Z,0.30
2022-11-16T14:56:21.923Z,0.30
2022-11-16T14:58:58.422Z,0.30
2022-11-16T15:01:32.076Z,0.30
2022-11-16T15:04:06.258Z,0.30
2022-11-16T15:06:46.580Z,0.30
2022-11-16T15:09:24.170Z,0.30
2022-11-16T15:12:12.486Z,0.20
2022-11-16T15:14:52.907Z,0.20
2022-11-16T15:17:30.109Z,0.20
2022-11-16T15:20:07.459Z,0.20
2022-11-16T15:22:45.034Z,0.20
2022-11-16T15:25:31.564Z,0.30
2022-11-16T15:28:04.210Z,0.30
2022-11-16T15:30:38.083Z,0.30
2022-11-16T15:33:14.016Z,0.30
2022-11-16T15:35:45.079Z,0.30
2022-11-16T15:38:20.912Z,0.30
2022-11-16T15:40:56.676Z,0.40
2022-11-16T15:43:32.387Z,0.40
2022-11-16T15:46:06.718Z,0.40
2022-11-16T15:48:41.814Z,0.40
2022-11-16T15:51:23.990Z,0.40
2022-11-16T15:53:56.356Z,0.40
2022-11-16T15:56:35.707Z,0.40
2022-11-16T15:59:15.765Z,0.40
2022-11-16T16:01:48.403Z,0.50
2022-11-16T16:04:20.884Z,0.60
2022-11-16T16:06:53.278Z,0.60
2022-11-16T16:09:33.104Z,0.60
2022-11-16T16:12:21.903Z,0.70
2022-11-16T16:14:55.510Z,0.70
2022-11-16T16:17:28.188Z,0.70
2022-11-16T16:20:01.347Z,0.70
2022-11-16T16:22:34.733Z,0.80
2022-11-16T16:25:06.817Z,0.80
2022-11-16T16:27:43.400Z,0.90
2022-11-16T16:30:18.289Z,0.90
2022-11-16T16:32:52.008Z,0.90
2022-11-16T16:35:24.857Z,1.00
2022-11-16T16:38:02.262Z,1.00
2022-11-16T16:40:33.913Z,1.00
2022-11-16T16:43:06.278Z,1.00
2022-11-16T16:45:40.643Z,1.10
2022-11-16T16:48:13.605Z,1.10
2022-11-16T16:50:44.735Z,1.20
2022-11-16T16:53:16.629Z,1.30
2022-11-16T16:55:52.870Z,1.30
2022-11-16T16:58:26.387Z,1.40
2022-11-16T17:01:01.324Z,1.50
2022-11-16T17:03:34.553Z,1.50
2022-11-16T17:06:05.872Z,1.60
2022-11-16T17:08:38.285Z,1.70
2022-11-16T17:11:09.842Z,1.80
2022-11-16T17:13:42.889Z,1.80
2022-11-16T17:16:13.728Z,1.90
2022-11-16T17:18:45.234Z,2.00
2022-11-16T17:21:16.944Z,2.10
2022-11-16T17:23:47.938Z,2.20
2022-11-16T17:26:19.189Z,2.30
2022-11-16T17:28:51.949Z,2.30
2022-11-16T17:31:24.195Z,2.40
2022-11-16T17:33:55.570Z,2.50
2022-11-16T17:36:26.574Z,2.60
2022-11-16T17:38:57.255Z,2.70
2022-11-16T17:41:31.006Z,2.80
2022-11-16T17:44:04.482Z,3.00
2022-11-16T17:46:35.517Z,3.10
2022-11-16T17:49:07.118Z,3.10
2022-11-16T17:51:38.510Z,3.20
2022-11-16T17:54:09.389Z,3.30
2022-11-16T17:56:41.500Z,3.40
2022-11-16T17:59:14.345Z,3.50
2022-11-16T18:01:45.446Z,3.60
2022-11-16T18:04:17.705Z,3.60
2022-11-16T18:06:49.290Z,3.70
2022-11-16T18:09:21.194Z,3.80
2022-11-16T18:11:52.561Z,3.80
2022-11-16T18:14:25.241Z,3.90
2022-11-16T18:16:56.518Z,4.00
2022-11-16T18:19:27.353Z,4.10
2022-11-16T18:21:59.134Z,4.20
2022-11-16T18:24:30.181Z,4.30
2022-11-16T18:27:01.851Z,4.40
2022-11-16T18:29:34.612Z,4.40
2022-11-16T18:32:06.057Z,4.50
2022-11-16T18:34:37.087Z,4.60
2022-11-16T18:37:08.068Z,4.60
2022-11-16T18:39:39.877Z,4.70
2022-11-16T18:42:13.236Z,4.90
2022-11-16T18:44:46.060Z,4.90
2022-11-16T18:47:17.134Z,4.90
2022-11-16T18:49:48.191Z,5.00
2022-11-16T18:52:19.771Z,5.00
2022-11-16T18:54:53.465Z,5.10
2022-11-16T18:57:24.857Z,5.20
2022-11-16T18:59:57.700Z,5.30
2022-11-16T19:02:28.517Z,5.40
2022-11-16T19:04:59.854Z,5.50
2022-11-16T19:07:31.394Z,5.60
2022-11-16T19:10:03.178Z,5.70
2022-11-16T19:12:33.986Z,5.80
2022-11-16T19:15:07.331Z,5.80
2022-11-16T19:17:53.395Z,5.90
2022-11-16T19:20:29.505Z,6.00
2022-11-16T19:23:02.073Z,6.10
2022-11-16T19:25:33.182Z,6.30
2022-11-16T19:28:07.257Z,6.30
2022-11-16T19:30:39.886Z,6.50
2022-11-16T19:33:11.167Z,6.60
2022-11-16T19:35:42.134Z,6.70
2022-11-16T19:38:13.152Z,6.70
2022-11-16T19:40:43.939Z,6.70
2022-11-16T19:43:15.074Z,6.80
2022-11-16T19:45:48.585Z,6.80
2022-11-16T19:48:19.749Z,6.90
2022-11-16T19:50:50.564Z,6.90
2022-11-16T19:53:21.869Z,7.00
2022-11-16T19:55:57.072Z,7.00
2022-11-16T19:58:28.112Z,7.00
2022-11-16T20:01:06.449Z,7.10
2022-11-16T20:03:39.084Z,7.30
2022-11-16T20:06:12.192Z,7.40
2022-11-16T20:08:44.817Z,7.40
2022-11-16T20:11:17.210Z,7.50
2022-11-16T20:13:48.189Z,7.60
2022-11-16T20:16:22.950Z,7.70
2022-11-16T20:18:54.566Z,7.70
2022-11-16T20:21:26.857Z,7.80
2022-11-16T20:24:04.695Z,7.90
2022-11-16T20:26:38.114Z,7.90
2022-11-16T20:29:09.226Z,8.20
2022-11-16T20:31:44.146Z,8.30
2022-11-16T20:34:16.836Z,8.40
2022-11-16T20:36:51.331Z,8.40
2022-11-16T20:39:23.713Z,8.50
2022-11-16T20:41:54.874Z,8.60
2022-11-16T20:44:25.698Z,8.70
2022-11-16T20:46:58.641Z,8.70
2022-11-16T20:49:30.150Z,8.70
2022-11-16T20:52:01.784Z,8.70
2022-11-16T20:54:33.425Z,8.80
2022-11-16T20:57:05.663Z,8.80
2022-11-16T20:59:36.699Z,8.80
2022-11-16T21:02:13.036Z,8.80
2022-11-16T21:04:43.635Z,9.00
2022-11-16T21:07:15.368Z,9.10
2022-11-16T21:10:11.352Z,9.20
2022-11-16T21:12:58.986Z,9.40
2022-11-16T21:15:30.457Z,9.60
2022-11-16T21:18:03.010Z,9.90
2022-11-16T21:20:33.810Z,10.00
2022-11-16T21:23:05.102Z,10.10
2022-11-16T21:25:36.390Z,10.10
2022-11-16T21:28:07.661Z,10.30
2022-11-16T21:30:38.772Z,10.50
2022-11-16T21:33:12.314Z,10.40
2022-11-16T21:35:43.339Z,10.60
2022-11-16T21:38:15.006Z,10.70
2022-11-16T21:40:47.517Z,10.60
2022-11-16T21:43:18.665Z,10.80
2022-11-16T21:45:50.657Z,10.80
2022-11-16T21:48:23.308Z,10.80
2022-11-16T21:51:03.324Z,10.90
2022-11-16T21:53:34.506Z,11.00
2022-11-16T21:56:06.448Z,11.00
2022-11-16T21:58:38.183Z,10.90
2022-11-16T22:01:09.178Z,10.70
2022-11-16T22:03:42.012Z,10.70
2022-11-16T22:06:33.240Z,10.80
2022-11-16T22:09:04.287Z,10.90
2022-11-16T22:11:35.742Z,10.90
2022-11-16T22:14:07.280Z,10.90
2022-11-16T22:16:39.880Z,10.90
2022-11-16T22:19:12.328Z,10.90
2022-11-16T22:21:43.156Z,10.90
2022-11-16T22:24:13.897Z,11.00
2022-11-16T22:26:44.745Z,11.10
2022-11-16T22:29:15.543Z,11.20
2022-11-16T22:31:48.646Z,11.10
2022-11-16T22:34:21.322Z,11.20
2022-11-16T22:36:53.095Z,11.20
2022-11-16T22:39:24.792Z,11.10
2022-11-16T22:41:57.277Z,11.10
2022-11-16T22:44:27.936Z,11.20
2022-11-16T22:46:58.525Z,11.20
2022-11-16T22:49:31.462Z,11.30
2022-11-16T22:52:02.296Z,11.30
2022-11-16T22:54:34.933Z,11.40
2022-11-16T22:57:05.621Z,11.30
2022-11-16T22:59:36.225Z,11.30
2022-11-16T23:02:07.493Z,11.20
2022-11-16T23:04:40.421Z,10.90
2022-11-16T23:07:11.041Z,10.70
2022-11-16T23:09:41.867Z,10.60
2022-11-16T23:12:28.874Z,10.30
2022-11-16T23:15:16.290Z,10.10
2022-11-16T23:17:49.107Z,9.90
2022-11-16T23:20:38.014Z,9.70
2022-11-16T23:23:25.465Z,9.60
2022-11-16T23:26:12.597Z,9.40
2022-11-16T23:28:43.240Z,9.30
2022-11-16T23:31:14.096Z,9.20
2022-11-16T23:33:48.495Z,9.10
2022-11-16T23:36:21.136Z,9.00
2022-11-16T23:38:51.722Z,8.90
2022-11-16T23:41:39.055Z,8.80
2022-11-16T23:44:09.921Z,8.70
2022-11-16T23:46:40.948Z,8.60
2022-11-16T23:49:11.834Z,8.50
2022-11-16T23:51:44.008Z,8.50
2022-11-16T23:54:14.557Z,8.40
2022-11-16T23:56:45.412Z,8.30
2022-11-16T23:59:15.946Z,8.20
